Time;durP1;ratioP1;P1;durP2;ratioP2;P2;SDS_P1;SDS_P2;PMS_P1;PMS_P2;Temp;Humidity;BMP_temperature;BMP_pressure;BME280_temperature;BME280_humidity;BME280_pressure;Samples;Min_cycle;Max_cycle;Signal;HPM_P1;HPM_P2
2022/06/03 19:40:44;;;;;;;21.65;18.50;;;;;;;;;;6196050;22;20066;-75
2022/06/03 19:43:25;;;;;;;20.37;17.77;;;;;;;;;;6307329;22;20400;-76
2022/06/03 19:45:56;;;;;;;19.27;17.23;;;;;;;;;;6307486;22;20004;-75
2022/06/03 19:48:30;;;;;;;17.90;16.00;;;;;;;;;;6282163;22;20288;-77
2022/06/03 19:51:08;;;;;;;16.33;14.40;;;;;;;;;;6276530;22;20049;-75
2022/06/03 19:53:55;;;;;;;16.65;15.02;;;;;;;;;;6277046;22;20000;-75
2022/06/03 19:56:33;;;;;;;15.77;14.13;;;;;;;;;;6277008;22;20000;-77
2022/06/03 19:59:07;;;;;;;16.97;13.40;;;;;;;;;;6276628;22;20004;-77
2022/06/03 20:01:33;;;;;;;12.05;10.82;;;;;;;;;;6276733;22;20695;-78
2022/06/03 20:03:59;;;;;;;12.25;10.90;;;;;;;;;;6276759;22;20004;-76
2022/06/03 20:06:27;;;;;;;12.90;10.40;;;;;;;;;;6276787;22;20000;-74
2022/06/03 20:08:55;;;;;;;14.82;10.45;;;;;;;;;;6276732;22;20008;-77
2022/06/03 20:14:12;;;;;;;11.60;9.57;;;;;;;;;;6278404;22;20018;-76
2022/06/03 20:16:56;;;;;;;12.15;9.68;;;;;;;;;;6278671;22;20065;-78
2022/06/03 20:19:23;;;;;;;12.60;9.75;;;;;;;;;;6278708;22;20000;-74
2022/06/03 20:21:54;;;;;;;9.95;8.85;;;;;;;;;;6278825;22;20065;-76
2022/06/03 20:24:43;;;;;;;13.57;9.63;;;;;;;;;;6278876;22;20449;-76
2022/06/03 20:27:27;;;;;;;11.35;8.68;;;;;;;;;;6278455;22;20030;-75
2022/06/03 20:30:01;;;;;;;9.88;8.55;;;;;;;;;;6278885;22;20006;-74
2022/06/03 20:32:50;;;;;;;12.57;8.70;;;;;;;;;;6278676;22;20034;-75
2022/06/03 20:35:51;;;;;;;8.90;8.00;;;;;;;;;;6255333;22;20353;-74
2022/06/03 20:38:28;;;;;;;10.10;7.70;;;;;;;;;;6258061;22;20011;-74
2022/06/03 20:41:20;;;;;;;9.25;7.93;;;;;;;;;;6278224;22;20015;-76
2022/06/03 20:44:05;;;;;;;13.82;11.63;;;;;;;;;;6278621;22;20034;-75
2022/06/03 20:46:58;;;;;;;11.10;9.90;;;;;;;;;;6275551;22;20011;-93
2022/06/03 20:49:34;;;;;;;9.43;8.38;;;;;;;;;;6249427;23;20399;-92
2022/06/03 20:52:06;;;;;;;11.27;8.88;;;;;;;;;;6247036;23;20015;-92
2022/06/03 20:54:33;;;;;;;10.32;7.57;;;;;;;;;;6252374;22;20095;-92
2022/06/03 20:57:12;;;;;;;10.45;8.32;;;;;;;;;;6247132;22;20546;-91
2022/06/03 20:59:38;;;;;;;14.90;10.50;;;;;;;;;;6251910;22;20019;-92
2022/06/03 21:02:07;;;;;;;16.42;11.73;;;;;;;;;;6279617;22;19996;-92
2022/06/03 21:13:06;;;;;;;10.35;7.88;;;;;;;;;;6280103;22;20065;-93
2022/06/03 21:15:31;;;;;;;12.63;8.32;;;;;;;;;;6279544;22;20008;-94
2022/06/03 21:17:57;;;;;;;11.48;7.22;;;;;;;;;;6247664;22;20040;-93
2022/06/03 21:20:29;;;;;;;8.90;6.95;;;;;;;;;;6274649;22;20004;-94
2022/06/03 21:23:21;;;;;;;9.02;6.25;;;;;;;;;;6246834;23;20011;-93
2022/06/03 21:25:47;;;;;;;8.60;6.25;;;;;;;;;;6248392;23;20004;-93
2022/06/03 21:28:14;;;;;;;11.10;6.60;;;;;;;;;;6247336;22;20448;-92
2022/06/03 21:30:49;;;;;;;8.93;6.75;;;;;;;;;;6251893;22;20445;-93
2022/06/03 21:33:17;;;;;;;10.20;8.30;;;;;;;;;;6280922;22;20006;-93
2022/06/03 21:36:05;;;;;;;12.43;7.90;;;;;;;;;;6252331;22;20019;-92
2022/06/03 21:38:37;;;;;;;9.95;6.78;;;;;;;;;;6249180;22;20008;-91
2022/06/03 21:41:09;;;;;;;10.23;6.90;;;;;;;;;;6246829;23;20012;-91
2022/06/03 21:43:41;;;;;;;8.20;6.30;;;;;;;;;;6250212;22;20015;-91
2022/06/03 21:46:40;;;;;;;9.77;7.38;;;;;;;;;;6246707;22;20023;-92
2022/06/03 21:49:21;;;;;;;7.68;6.97;;;;;;;;;;6247185;23;20004;-91
2022/06/03 21:51:56;;;;;;;11.48;6.78;;;;;;;;;;6247068;23;20011;-90
2022/06/03 21:54:36;;;;;;;9.02;7.10;;;;;;;;;;6247202;22;20419;-91
2022/06/03 21:57:18;;;;;;;9.38;6.53;;;;;;;;;;6246714;22;20139;-91
2022/06/03 21:59:53;;;;;;;7.70;6.80;;;;;;;;;;6246701;23;20004;-92
2022/06/03 22:02:19;;;;;;;8.35;6.63;;;;;;;;;;6273241;22;20075;-91
2022/06/03 22:04:45;;;;;;;9.70;6.43;;;;;;;;;;6246777;23;20011;-91
2022/06/03 22:07:12;;;;;;;7.72;6.70;;;;;;;;;;6272077;22;20035;-92
2022/06/03 22:09:37;;;;;;;11.32;6.40;;;;;;;;;;6250594;22;20063;-92
2022/06/03 22:14:47;;;;;;;8.38;6.22;;;;;;;;;;6278787;22;20065;-92
2022/06/03 22:17:13;;;;;;;8.88;6.65;;;;;;;;;;6246161;22;20007;-91
2022/06/03 22:19:38;;;;;;;9.52;7.07;;;;;;;;;;6251204;22;20086;-95
2022/06/03 22:22:04;;;;;;;7.97;7.13;;;;;;;;;;6246925;23;20019;-93
2022/06/03 22:24:30;;;;;;;10.85;6.95;;;;;;;;;;6248048;22;20007;-88
2022/06/03 22:27:28;;;;;;;7.63;5.53;;;;;;;;;;6277822;22;20010;-87
2022/06/03 22:30:11;;;;;;;8.85;6.93;;;;;;;;;;6277715;22;20004;-86
